Bookmark and Share
Track history (hours):
 

Autonomia

Last reported at 2014-Apr-03 12:08 UTC. Time now 2014-Apr-16 22:20 UTC.
Position N 32°45' W 017°21'.
Warning: this ship's position is 13 days out of date.

Length 27 m.

MMSI: 255500118.

NotesDate/timePositionNaut miles runAvg speedWind from/ knotsBaromVisibWave heightAir tempDewpointWater temp
2014-Apr-03 12:08N 32°45' W 017°21'5 8.7
2014-Apr-03 11:33N 32°41' W 017°18'9 8.5
2014-Apr-03 10:33N 32°35' W 017°10'8 8.1
2014-Apr-03 09:33N 32°31' W 017°02'8 8.0
2014-Apr-03 08:33N 32°25' W 016°55'4 4.4
2014-Apr-03 07:33N 32°24' W 016°50'6 5.8
2014-Apr-03 06:33N 32°29' W 016°53'6 6.1
2014-Apr-03 05:33N 32°35' W 016°53'3 3.0
2014-Apr-03 04:33N 32°38' W 016°53'0 0.0
2014-Apr-03 03:33N 32°38' W 016°53'0 0.0
2014-Apr-03 02:33N 32°38' W 016°53'0 0.1
2014-Apr-03 01:33N 32°38' W 016°53'0 0.1
2014-Apr-03 00:33N 32°38' W 016°53'0 0.0
2014-Apr-02 23:33N 32°38' W 016°53'0 0.0
2014-Apr-02 22:33N 32°38' W 016°53'0 0.0
2014-Apr-02 21:33N 32°38' W 016°53'0 0.0
2014-Apr-02 20:33N 32°38' W 016°53'1 1.3
2014-Apr-02 19:33N 32°39' W 016°55'0 0.0
2014-Apr-02 18:33N 32°39' W 016°55'0 0.0
2014-Apr-02 17:33N 32°39' W 016°55'0 0.0
2014-Apr-02 16:33N 32°39' W 016°55'2 1.9
2014-Apr-02 15:33N 32°37' W 016°54'7 7.0
2014-Apr-02 14:33N 32°31' W 016°50'4 3.7
2014-Apr-02 13:33N 32°33' W 016°54'5 5.0
2014-Apr-02 12:34N 32°33' W 016°60'6 6.5
2014-Apr-02 11:34N 32°31' W 016°53'7 7.1
2014-Apr-02 10:33N 32°24' W 016°49'7 7.1
2014-Apr-02 09:33N 32°19' W 016°44'7 6.0
2014-Apr-02 08:22N 32°13' W 016°38'3 3.7
2014-Apr-02 07:26N 32°17' W 016°37'6 6.6
2014-Apr-02 06:33N 32°22' W 016°38'8 8.3
2014-Apr-02 05:33N 32°31' W 016°40'  
2014-Mar-30 17:07N 32°38' W 016°46'5 9.0
2014-Mar-30 16:34N 32°33' W 016°47'9 8.5
2014-Mar-30 15:33N 32°24' W 016°46'6 5.7
2014-Mar-30 14:33N 32°19' W 016°48'6 5.8
2014-Mar-30 13:32N 32°23' W 016°44'3 2.8
2014-Mar-30 12:33N 32°21' W 016°43'1 1.2
2014-Mar-30 11:33N 32°22' W 016°42'2 2.0
2014-Mar-30 10:33N 32°23' W 016°44'8 8.0
2014-Mar-30 09:33N 32°26' W 016°53'1 1.4
2014-Mar-30 08:33N 32°26' W 016°51'7 6.9
2014-Mar-30 07:34N 32°25' W 016°43'7 6.9
2014-Mar-30 06:34N 32°30' W 016°48'7 7.4
2014-Mar-30 05:34N 32°37' W 016°49'4 0.1
2014-Mar-28 08:34N 32°34' W 016°48'9 9.3
2014-Mar-28 07:34N 32°25' W 016°51'4 4.3
2014-Mar-28 06:34N 32°29' W 016°53'8 7.9
2014-Mar-28 05:34N 32°36' W 016°54'2 2.3
2014-Mar-28 04:34N 32°39' W 016°55'0 0.0
2014-Mar-28 03:34N 32°39' W 016°55'0 0.0
2014-Mar-28 02:34N 32°39' W 016°55'0 0.0
2014-Mar-28 01:34N 32°39' W 016°55'0 0.0
2014-Mar-28 00:34N 32°39' W 016°55'0 0.0
2014-Mar-27 23:33N 32°39' W 016°55'0 0.0
2014-Mar-27 22:34N 32°39' W 016°55'0 0.0
2014-Mar-27 21:33N 32°39' W 016°55'0 0.0
2014-Mar-27 20:34N 32°39' W 016°55'0 0.0
2014-Mar-27 19:34N 32°39' W 016°55'0 0.0
2014-Mar-27 18:34N 32°39' W 016°55'3 2.7
2014-Mar-27 17:34N 32°36' W 016°54'7 6.6
2014-Mar-27 16:34N 32°30' W 016°56'1 1.4
2014-Mar-27 15:34N 32°30' W 016°55'7 7.4
2014-Mar-27 14:33N 32°24' W 017°00'6 6.3
2014-Mar-27 13:34N 32°18' W 017°01'2 1.5
2014-Mar-27 12:31N 32°17' W 017°00'4 4.1
2014-Mar-27 11:34N 32°20' W 016°59'2 1.9
2014-Mar-27 10:34N 32°22' W 017°01'6 4.4
2014-Mar-27 09:18N 32°16' W 016°59'1 1.1
2014-Mar-27 08:32N 32°16' W 016°60'9 9.6
2014-Mar-27 07:33N 32°24' W 016°55'9 8.6
2014-Mar-27 06:34N 32°33' W 016°54'6 5.7
2014-Mar-27 05:34N 32°38' W 016°53'0 0.0
2014-Mar-27 04:34N 32°39' W 016°53'0 0.0
2014-Mar-27 03:33N 32°39' W 016°53'0 0.0
2014-Mar-27 02:34N 32°39' W 016°53'0 0.0
2014-Mar-27 01:34N 32°39' W 016°53'0 0.0
2014-Mar-27 00:34N 32°39' W 016°53'0 0.0
2014-Mar-26 23:34N 32°39' W 016°53'0 0.0
2014-Mar-26 20:34N 32°39' W 016°53'6 5.8
2014-Mar-26 19:34N 32°33' W 016°55'12 5.8
2014-Mar-26 17:33N 32°21' W 016°55'5 5.0
2014-Mar-26 16:33N 32°24' W 016°59'4 3.8
2014-Mar-26 15:33N 32°22' W 016°55'1 0.8
2014-Mar-26 14:33N 32°23' W 016°55'5 4.5
2014-Mar-26 13:33N 32°26' W 016°59'0 0.4
2014-Mar-26 12:33N 32°26' W 016°59'1 1.3
2014-Mar-26 11:33N 32°28' W 016°60'3 2.9
2014-Mar-26 10:33N 32°25' W 016°58'4 3.8
2014-Mar-26 09:33N 32°22' W 016°55'2 1.7
2014-Mar-26 08:33N 32°22' W 016°57'6 6.1
2014-Mar-26 07:33N 32°25' W 016°50'13 0.6
2014-Mar-25 10:32N 32°38' W 016°48'8 8.0
2014-Mar-25 09:33N 32°31' W 016°50'6 6.4
2014-Mar-25 08:33N 32°25' W 016°53'5 4.9
2014-Mar-25 07:33N 32°28' W 016°49'7 7.1
2014-Mar-25 06:33N 32°34' W 016°53'4 4.4
2014-Mar-25 05:33N 32°38' W 016°53'0 0.0
2014-Mar-25 04:33N 32°38' W 016°53'0 0.0
2014-Mar-25 03:33N 32°38' W 016°53'0 0.0
2014-Mar-25 02:33N 32°38' W 016°53'0 0.0
2014-Mar-25 01:33N 32°38' W 016°53'15 1.7
2014-Mar-24 17:01N 32°24' W 016°53'  

Dump ship's entire track history

sailing weather and tide predictions

Autonomia — CUXX — position and weather